Phaethon — SVAM2 — position and weather

sailwx.info

Track history (hours):
 
Tides and Currents Weather Stations Pressure Air Temp Water Temp Dewpoint Dewpoint Depression Visibility Wind Speed Wind Dir Waves Ship Positions

Phaethon

Last reported at 2014-Oct-04 03:30 UTC. Time now 2014-Nov-27 11:52 UTC.
Position N 35°59' W 005°30'.
Warning: this ship's position is 54 days out of date.

Length 274 m; draft 9.5 m.

Type: Tanker. MMSI: 240836000.

Date/timePositionNaut miles runAvg speedWind from/ knotsBaromVisibWave heightAir tempDewpointWater temp
2014-Oct-04 03:30N 35°59' W 005°30'12 0.5
2014-Oct-03 03:27N 36°05' W 005°17'21713.4
2014-Oct-02 11:16N 37°24' W 001°05'11 0.5
2014-Oct-01 14:10N 37°34' W 000°58'3 0.1
2014-Sep-30 11:33N 37°33' W 001°02'8 7.5
2014-Sep-30 10:33N 37°27' W 000°57'9 9.3
2014-Sep-30 09:33N 37°20' W 000°48'13 9.9
2014-Sep-30 08:15N 37°21' W 000°32'7 9.9
2014-Sep-30 07:33N 37°22' W 000°23'1110.8
2014-Sep-30 06:30N 37°22' W 000°09'13213.2
2014-Sep-29 20:32N 37°32' E 002°36'1413.8
2014-Sep-29 19:33N 37°33' E 002°53'1713.9
2014-Sep-29 18:20N 37°35' E 003°15'3114.0
2014-Sep-29 16:07N 37°37' E 003°54'2113.7
2014-Sep-29 14:33N 37°38' E 004°21'11 9.9
2014-Sep-29 13:27N 37°39' E 004°34'  
Track history (hours):
 
Tides and Currents Weather Stations Pressure Air Temp Water Temp Dewpoint Dewpoint Depression Visibility Wind Speed Wind Dir Waves Ship Positions

Phaethon

Last reported at 2014-Oct-04 03:30 UTC. Time now 2014-Nov-27 11:52 UTC.
Position N 35°59' W 005°30'.
Warning: this ship's position is 54 days out of date.

Length 274 m; draft 9.5 m.

Type: Tanker. MMSI: 240836000.

Date/timePositionNaut miles runAvg speedWind from/ knotsBaromVisibWave heightAir tempDewpointWater temp
2014-Oct-04 03:30N 35°59' W 005°30'12 0.5
2014-Oct-03 03:27N 36°05' W 005°17'21713.4
2014-Oct-02 11:16N 37°24' W 001°05'11 0.5
2014-Oct-01 14:10N 37°34' W 000°58'3 0.1
2014-Sep-30 11:33N 37°33' W 001°02'8 7.5
2014-Sep-30 10:33N 37°27' W 000°57'9 9.3
2014-Sep-30 09:33N 37°20' W 000°48'13 9.9
2014-Sep-30 08:15N 37°21' W 000°32'7 9.9
2014-Sep-30 07:33N 37°22' W 000°23'1110.8
2014-Sep-30 06:30N 37°22' W 000°09'13213.2
2014-Sep-29 20:32N 37°32' E 002°36'1413.8
2014-Sep-29 19:33N 37°33' E 002°53'1713.9
2014-Sep-29 18:20N 37°35' E 003°15'3114.0
2014-Sep-29 16:07N 37°37' E 003°54'2113.7
2014-Sep-29 14:33N 37°38' E 004°21'11 9.9
2014-Sep-29 13:27N 37°39' E 004°34'  

Dump ship's entire track history